Time;durP1;ratioP1;P1;durP2;ratioP2;P2;SDS_P1;SDS_P2;PMS_P1;PMS_P2;Temp;Humidity;BMP_temperature;BMP_pressure;BME280_temperature;BME280_humidity;BME280_pressure;Samples;Min_cycle;Max_cycle;Signal;HPM_P1;HPM_P2
2022/05/17 00:00:59;;;;;;;11.00;6.00;;;16.80;66.70;;;13.08;86.54;95992.63;5081592;28;20060;-50
2022/05/17 00:03:26;;;;;;;11.20;6.38;;;16.70;66.70;;;13.17;86.32;96017.75;5038256;28;20024;-52
2022/05/17 00:05:52;;;;;;;7.75;5.90;;;16.70;66.80;;;13.13;86.80;96007.84;5054823;28;20434;-52
2022/05/17 00:08:18;;;;;;;9.20;6.00;;;16.60;66.90;;;13.08;86.63;96013.22;5054210;28;20086;-52
2022/05/17 00:10:47;;;;;;;8.65;5.85;;;16.60;67.00;;;13.01;86.72;96007.38;5072544;28;20100;-52
2022/05/17 00:13:16;;;;;;;9.70;5.70;;;16.60;67.40;;;13.02;86.88;96009.75;5054758;28;20036;-50
2022/05/17 00:15:51;;;;;;;7.55;5.78;;;16.60;67.40;;;12.93;86.73;96000.69;5038038;28;20482;-55
2022/05/17 00:18:19;;;;;;;8.00;5.95;;;16.50;67.40;;;12.89;87.04;96003.09;5054638;28;20040;-54
2022/05/17 00:20:45;;;;;;;11.23;6.25;;;16.50;67.40;;;12.88;87.19;96003.34;5054702;28;20451;-54
2022/05/17 00:23:15;;;;;;;7.72;6.30;;;16.50;67.60;;;12.84;87.98;96000.41;5054685;28;20097;-50
2022/05/17 00:25:48;;;;;;;9.85;6.10;;;16.40;67.90;;;12.81;87.63;96005.50;5054662;28;20052;-52
2022/05/17 00:28:21;;;;;;;;;;;16.40;68.10;;;12.82;87.34;96009.78;5054509;28;20043;-50
2022/05/17 00:30:51;;;;;;;11.43;5.93;;;16.30;67.10;;;12.73;88.12;95999.63;5036112;28;19949;-51
2022/05/17 00:33:17;;;;;;;10.20;6.40;;;16.30;67.40;;;12.78;88.20;96003.34;5052130;28;20083;-51
2022/05/17 00:35:45;;;;;;;8.50;5.80;;;16.30;67.60;;;12.74;87.45;95998.53;5052183;28;20028;-51
2022/05/17 00:38:12;;;;;;;11.95;6.30;;;16.30;67.80;;;12.67;87.60;95998.00;5049860;28;20037;-50
2022/05/17 00:40:38;;;;;;;9.00;6.10;;;16.20;67.90;;;12.58;87.49;95988.94;5050736;28;20037;-51
2022/05/17 00:46:49;;;;;;;9.77;5.90;;;16.20;68.30;;;12.45;88.02;95973.44;5061232;28;20036;-50
2022/05/17 00:49:33;;;;;;;10.27;5.82;;;16.20;68.40;;;12.52;87.91;95990.00;5040488;28;20128;-57
2022/05/17 00:52:39;;;;;;;8.43;5.78;;;16.10;68.40;;;12.49;88.55;95982.50;5053169;28;20029;-52
2022/05/17 00:55:41;;;;;;;10.48;6.18;;;16.10;68.60;;;12.43;87.91;95981.69;5051144;28;20061;-52
2022/05/17 00:58:14;;;;;;;9.40;6.03;;;16.00;68.40;;;12.38;88.89;95980.88;5063227;28;20040;-50
2022/05/17 01:01:07;;;;;;;9.55;6.28;;;16.00;68.70;;;12.38;89.14;95973.69;5045161;28;20035;-52
2022/05/17 01:04:07;;;;;;;8.25;6.30;;;16.00;68.90;;;12.39;89.03;95977.97;5063586;28;20119;-54
2022/05/17 01:07:07;;;;;;;14.45;6.53;;;15.90;68.90;;;12.35;88.80;95976.09;5064019;28;20025;-52
2022/05/17 01:09:36;;;;;;;10.77;6.40;;;15.90;68.90;;;12.29;88.94;95972.63;5035107;28;20483;-52
2022/05/17 01:12:02;;;;;;;10.40;6.20;;;15.90;68.90;;;12.29;88.96;95983.31;5050377;28;20032;-53
2022/05/17 01:17:34;;;;;;;10.07;5.97;;;15.90;69.30;;;12.23;89.03;95979.03;5049993;28;20075;-54
2022/05/17 01:20:04;;;;;;;11.63;6.25;;;15.80;69.10;;;12.18;88.52;95971.00;5058593;28;20032;-54
2022/05/17 01:22:39;;;;;;;11.65;5.97;;;15.80;68.90;;;12.09;89.02;95969.91;5071453;28;20068;-56
2022/05/17 01:25:06;;;;;;;10.13;6.22;;;15.80;69.20;;;12.05;89.07;95974.97;5050048;28;20384;-53
2022/05/17 01:28:22;;;;;;;10.15;6.30;;;15.70;69.20;;;12.03;88.96;95963.75;5051896;28;20025;-55
2022/05/17 01:30:51;;;;;;;8.18;5.95;;;15.70;69.70;;;11.96;88.61;95961.34;5052478;28;20085;-52
2022/05/17 01:33:20;;;;;;;11.68;6.10;;;15.60;69.30;;;11.91;89.00;95963.19;5071322;28;20059;-53
2022/05/17 01:35:46;;;;;;;9.98;6.85;;;15.60;69.40;;;11.90;88.86;95967.72;5069570;28;20028;-55
2022/05/17 01:38:15;;;;;;;9.25;6.25;;;15.50;69.50;;;11.89;89.46;95966.13;5052934;28;20458;-54
2022/05/17 01:40:41;;;;;;;11.60;7.13;;;15.50;69.70;;;11.81;89.64;95967.41;5069962;28;20028;-56
2022/05/17 01:43:16;;;;;;;10.00;6.43;;;15.50;69.80;;;11.83;89.12;95969.81;5071183;28;20033;-53
2022/05/17 01:45:42;;;;;;;10.43;6.72;;;15.50;70.00;;;11.77;88.86;95955.66;5071223;28;20063;-53
2022/05/17 01:48:14;;;;;;;8.32;6.60;;;15.40;69.60;;;11.72;88.95;95962.84;5070758;28;20064;-53
2022/05/17 01:50:40;;;;;;;12.67;6.67;;;15.40;69.90;;;11.65;89.21;95957.75;5053326;28;20021;-52
2022/05/17 01:53:06;;;;;;;10.05;7.20;;;15.40;69.70;;;11.66;89.60;95963.88;5049699;28;20115;-53
2022/05/17 01:55:32;;;;;;;11.85;6.75;;;15.30;69.90;;;11.69;90.07;95961.50;5050614;28;20108;-52
2022/05/17 01:58:00;;;;;;;8.05;6.40;;;15.30;70.10;;;11.67;89.93;95966.28;5066552;28;20573;-55
2022/05/17 02:00:30;;;;;;;10.63;6.80;;;15.30;70.30;;;11.65;89.77;95956.94;5061519;28;20395;-52
2022/05/17 02:03:03;;;;;;;10.95;7.07;;;15.30;70.20;;;11.60;89.67;95963.06;5053878;28;20108;-55
2022/05/17 02:05:31;;;;;;;9.27;7.38;;;15.30;70.30;;;11.60;89.58;95970.28;5041123;28;20025;-50
2022/05/17 02:07:57;;;;;;;12.23;7.10;;;15.30;70.30;;;11.58;89.65;95970.53;5054852;28;20036;-51
2022/05/17 02:10:25;;;;;;;11.05;7.43;;;15.30;70.40;;;11.54;90.41;95956.13;5053579;28;20035;-50
2022/05/17 02:12:57;;;;;;;11.57;7.50;;;15.20;70.50;;;11.56;89.93;95956.63;5054756;28;20075;-54
2022/05/17 02:15:25;;;;;;;12.35;6.82;;;15.20;70.70;;;11.53;89.54;95963.31;5037151;28;20127;-52
2022/05/17 02:17:52;;;;;;;11.88;7.53;;;15.20;70.50;;;11.53;90.12;95965.16;5036480;28;20051;-53
2022/05/17 02:20:18;;;;;;;15.75;7.47;;;15.20;70.60;;;11.52;90.62;95952.91;5053427;28;20025;-50
2022/05/17 02:22:44;;;;;;;12.32;7.68;;;15.20;70.70;;;11.50;90.58;95955.00;5053487;28;20048;-50
2022/05/17 02:25:12;;;;;;;9.57;7.22;;;15.10;70.80;;;11.48;90.10;95949.16;5053452;28;20108;-54
2022/05/17 02:27:38;;;;;;;10.13;7.28;;;15.10;70.70;;;11.45;89.75;95958.47;5055972;28;20491;-55
2022/05/17 02:30:08;;;;;;;16.05;8.27;;;15.10;70.70;;;11.39;90.09;95961.38;5068444;28;20471;-54
2022/05/17 02:32:34;;;;;;;13.88;7.38;;;15.10;70.80;;;11.38;90.23;95962.47;5056769;28;20040;-56
2022/05/17 02:35:00;;;;;;;14.45;8.13;;;15.10;70.90;;;11.35;90.23;95967.25;5057214;28;20410;-58
2022/05/17 02:37:25;;;;;;;14.50;7.95;;;15.00;70.80;;;11.29;90.61;95967.47;5074828;28;20526;-58
2022/05/17 02:40:05;;;;;;;14.52;7.78;;;15.00;71.00;;;11.30;90.36;95969.06;5057271;28;20064;-57
2022/05/17 02:42:33;;;;;;;11.05;7.75;;;15.00;71.30;;;11.24;90.56;95954.09;5056781;28;20550;-54
2022/05/17 02:45:03;;;;;;;11.60;7.38;;;14.90;71.10;;;11.22;90.54;95964.22;5056758;28;20085;-58
2022/05/17 02:47:36;;;;;;;11.70;7.22;;;15.00;71.50;;;11.23;90.65;95971.97;5056624;28;20082;-54
2022/05/17 02:50:02;;;;;;;10.45;7.55;;;15.00;71.40;;;11.19;90.32;95970.91;5057345;28;20025;-53
2022/05/17 02:52:39;;;;;;;12.20;8.05;;;14.90;71.30;;;11.18;90.86;95971.94;5057047;28;20033;-53
2022/05/17 02:55:06;;;;;;;14.63;8.02;;;14.90;71.60;;;11.21;91.01;95968.75;5056798;28;20025;-55
2022/05/17 02:57:32;;;;;;;15.60;7.70;;;14.90;71.60;;;11.23;90.46;95971.19;5056742;28;20041;-58
2022/05/17 02:59:58;;;;;;;15.07;8.43;;;14.90;71.50;;;11.19;90.36;95978.06;5056671;28;20025;-57
2022/05/17 03:02:25;;;;;;;15.00;8.30;;;14.90;71.50;;;11.17;90.52;95974.88;5059952;28;20051;-53
2022/05/17 03:04:51;;;;;;;14.10;8.48;;;14.90;71.60;;;11.14;90.53;95978.06;5061037;28;20483;-54
2022/05/17 03:07:17;;;;;;;12.10;7.72;;;14.80;72.20;;;10.98;90.44;95956.63;5055724;28;20082;-53
2022/05/17 03:09:43;;;;;;;14.13;8.40;;;14.80;71.50;;;11.06;90.55;95974.00;5074224;28;20391;-55
2022/05/17 03:12:18;;;;;;;10.63;8.27;;;14.80;71.50;;;11.01;90.40;95966.00;5074348;28;20028;-53
2022/05/17 03:14:44;;;;;;;12.73;7.85;;;14.80;71.50;;;11.00;90.38;95975.84;5056445;28;20036;-55
2022/05/17 03:17:17;;;;;;;12.45;7.60;;;14.70;71.50;;;10.92;90.48;95967.53;5056865;28;20415;-57
2022/05/17 03:19:44;;;;;;;11.10;7.78;;;14.70;71.70;;;10.93;90.32;95977.13;5056198;28;20118;-55
2022/05/17 03:22:13;;;;;;;14.73;8.48;;;14.70;71.50;;;10.89;90.03;95984.84;5072904;28;20039;-53
2022/05/17 03:24:39;;;;;;;13.18;8.30;;;14.70;71.50;;;10.87;90.05;95986.94;5073976;28;20402;-53
2022/05/17 03:27:11;;;;;;;14.48;8.27;;;14.60;71.40;;;10.82;90.67;95982.38;5056190;28;20103;-53
2022/05/17 03:29:36;;;;;;;19.85;9.43;;;14.60;71.60;;;10.83;91.19;95989.31;5081602;28;20355;-55
2022/05/17 03:32:09;;;;;;;15.10;9.70;;;14.60;71.70;;;10.80;91.65;95989.03;5056133;28;20031;-52
2022/05/17 03:34:35;;;;;;;14.45;9.05;;;14.60;71.90;;;10.80;91.18;95987.16;5039531;28;20498;-57
2022/05/17 03:37:01;;;;;;;16.33;8.88;;;14.50;71.80;;;10.78;91.00;95983.97;5078655;28;20032;-56
2022/05/17 03:39:26;;;;;;;17.80;9.38;;;14.50;71.80;;;10.77;90.95;95979.69;5073703;28;20032;-53
2022/05/17 03:41:52;;;;;;;17.20;9.98;;;14.50;71.80;;;10.78;91.36;95980.47;5056352;28;20079;-56
2022/05/17 03:44:24;;;;;;;14.35;9.68;;;14.50;71.80;;;10.75;91.63;95980.97;5056259;28;20542;-57
2022/05/17 03:46:53;;;;;;;14.50;9.02;;;14.50;72.30;;;10.75;91.67;95981.81;5073747;28;20107;-50
2022/05/17 03:49:19;;;;;;;16.77;9.38;;;14.50;72.20;;;10.77;91.53;95985.00;5073534;28;20029;-54
2022/05/17 03:51:50;;;;;;;12.35;8.55;;;14.50;72.30;;;10.77;91.41;95986.88;5073456;28;20188;-54
2022/05/17 03:54:22;;;;;;;16.23;8.18;;;14.50;72.30;;;10.76;91.27;95983.41;5073504;28;20027;-52
2022/05/17 03:56:48;;;;;;;14.35;8.10;;;14.50;72.20;;;10.74;90.97;95987.38;5056673;28;20025;-58
2022/05/17 03:59:14;;;;;;;15.02;9.52;;;14.50;72.10;;;10.67;90.99;95990.28;5073845;28;20107;-58
2022/05/17 04:01:46;;;;;;;13.38;8.38;;;14.50;72.10;;;10.69;90.95;95995.34;5073706;28;20055;-58
2022/05/17 04:04:13;;;;;;;14.98;9.00;;;14.50;72.20;;;10.61;90.95;95983.28;5073078;28;20483;-55
2022/05/17 04:06:46;;;;;;;16.23;9.70;;;14.50;72.00;;;10.64;91.10;95990.78;5038924;28;20071;-54
2022/05/17 04:09:15;;;;;;;17.13;9.27;;;14.50;72.20;;;10.65;91.33;95989.72;5055614;28;20017;-58
2022/05/17 04:11:47;;;;;;;18.33;9.45;;;14.50;72.10;;;10.64;91.12;95990.78;5055512;28;20391;-58
2022/05/17 04:14:12;;;;;;;17.77;9.43;;;14.50;72.20;;;10.65;91.37;95993.19;5055322;28;20029;-57
2022/05/17 04:16:44;;;;;;;15.52;9.70;;;14.50;72.10;;;10.68;91.47;95991.88;5055367;28;20549;-55
2022/05/17 04:19:12;;;;;;;18.58;9.77;;;14.50;72.20;;;10.69;91.64;95998.03;5054973;28;20032;-58
2022/05/17 04:21:37;;;;;;;17.83;10.20;;;14.50;72.10;;;10.72;91.91;95992.97;5073213;28;20028;-56
2022/05/17 04:24:15;;;;;;;15.73;9.32;;;14.60;72.30;;;10.77;91.53;95998.31;5072968;28;20090;-57
2022/05/17 04:26:47;;;;;;;15.68;8.70;;;14.60;72.40;;;10.72;91.21;95998.31;5072856;28;20498;-58
2022/05/17 04:29:15;;;;;;;12.20;7.78;;;14.60;72.20;;;10.59;90.83;95978.22;5037559;28;20100;-57
2022/05/17 04:31:41;;;;;;;14.93;9.02;;;14.70;72.10;;;10.70;90.87;95996.94;5072689;28;20028;-56
2022/05/17 04:34:06;;;;;;;18.55;9.35;;;14.60;72.00;;;10.74;90.93;95995.38;5055107;28;20079;-58
2022/05/17 04:36:58;;;;;;;15.95;10.88;;;14.70;72.00;;;11.08;92.19;95999.34;5054765;28;20027;-52
2022/05/17 04:39:24;;;;;;;17.35;10.88;;;14.80;72.40;;;11.35;91.96;96001.91;5072681;28;20036;-58
2022/05/17 04:41:50;;;;;;;18.55;10.30;;;14.90;72.30;;;11.66;91.68;96001.22;5072632;28;20024;-52
2022/05/17 04:44:16;;;;;;;13.13;8.95;;;15.20;72.50;;;11.89;91.15;96000.03;5072657;28;20028;-53
2022/05/17 04:46:45;;;;;;;15.27;8.77;;;15.40;72.40;;;12.19;90.78;96008.13;5038026;28;20024;-53
2022/05/17 04:49:11;;;;;;;12.13;8.40;;;15.60;72.40;;;12.49;90.80;96012.69;5054507;28;20029;-56
2022/05/17 04:51:39;;;;;;;9.25;7.30;;;15.80;72.10;;;12.78;89.44;96014.84;5054686;28;20098;-58
2022/05/17 04:54:05;;;;;;;8.15;6.25;;;16.00;71.90;;;13.01;87.98;96015.38;5037923;28;20070;-58
2022/05/17 04:56:37;;;;;;;7.72;5.38;;;16.30;71.70;;;13.25;87.56;96018.31;5072239;28;20407;-56
2022/05/17 04:59:15;;;;;;;7.68;5.35;;;16.50;71.40;;;13.54;86.71;96016.66;5072613;28;20470;-58
2022/05/17 05:01:43;;;;;;;12.70;6.10;;;16.80;71.00;;;13.80;85.87;96020.03;5054586;28;20055;-58
2022/05/17 05:04:09;;;;;;;10.15;5.68;;;17.00;70.60;;;14.09;85.40;96022.03;5054498;28;20036;-56
2022/05/17 05:06:37;;;;;;;7.72;5.47;;;17.20;70.20;;;14.38;84.50;96019.44;5072243;28;20038;-56
2022/05/17 05:09:13;;;;;;;9.95;5.05;;;17.50;70.00;;;14.68;82.68;96015.00;5072113;28;20020;-55
2022/05/17 05:11:39;;;;;;;9.75;5.30;;;17.80;69.60;;;14.93;81.93;96014.81;5049212;28;20043;-55
2022/05/17 05:14:05;;;;;;;6.65;4.53;;;18.10;69.10;;;15.17;80.41;96022.13;5072521;28;20449;-58
2022/05/17 05:16:40;;;;;;;9.02;4.72;;;18.30;68.60;;;15.43;80.05;96017.28;5050994;28;20055;-58
2022/05/17 05:19:06;;;;;;;6.28;4.53;;;18.60;68.20;;;15.77;78.69;96019.09;5069409;28;20040;-57
2022/05/17 05:21:32;;;;;;;7.85;4.53;;;18.90;67.80;;;16.04;77.78;96029.22;5054211;28;20031;-58
2022/05/17 05:23:57;;;;;;;10.05;4.18;;;19.20;67.20;;;16.31;74.48;96021.34;5072306;28;20115;-58
2022/05/17 05:26:23;;;;;;;6.72;4.35;;;19.50;66.70;;;16.66;75.45;96032.69;5072086;28;20387;-59
2022/05/17 05:28:51;;;;;;;6.00;4.40;;;19.80;66.20;;;17.00;73.21;96029.75;5072054;28;20449;-59
2022/05/17 05:31:17;;;;;;;10.23;4.60;;;20.20;65.50;;;17.25;72.30;96031.22;5036847;28;20033;-59
2022/05/17 05:33:46;;;;;;;6.82;4.50;;;20.50;64.80;;;17.57;71.12;96034.94;5070777;28;20017;-59
2022/05/17 05:36:17;;;;;;;6.70;4.25;;;20.90;64.10;;;17.97;70.24;96029.91;5071915;28;20402;-57
2022/05/17 05:38:43;;;;;;;6.70;4.28;;;21.30;63.30;;;18.12;68.65;96032.28;5000878;28;20522;-59
2022/05/17 05:41:13;;;;;;;6.15;4.45;;;21.60;62.60;;;18.31;66.95;96040.25;5054245;28;20029;-57
2022/05/17 05:43:39;;;;;;;9.13;4.63;;;21.90;61.50;;;18.49;66.77;96039.31;5054337;28;20032;-59
2022/05/17 05:46:08;;;;;;;12.30;4.53;;;22.20;60.60;;;18.68;65.67;96047.25;5072256;28;20029;-59
2022/05/17 05:48:34;;;;;;;9.68;4.50;;;22.50;59.70;;;18.79;65.30;96038.94;5071812;28;20546;-59
2022/05/17 05:50:59;;;;;;;6.70;4.43;;;22.70;59.20;;;18.99;64.58;96034.97;5050292;28;20115;-59
2022/05/17 05:53:25;;;;;;;6.70;4.85;;;22.90;58.60;;;19.12;63.89;96042.22;5053878;28;20029;-59
2022/05/17 05:55:57;;;;;;;10.15;4.63;;;23.20;58.10;;;19.24;63.35;96045.16;5071769;28;20021;-58
2022/05/17 05:58:39;;;;;;;7.50;4.15;;;23.40;57.40;;;19.43;63.05;96039.56;5054861;28;20032;-59
2022/05/17 06:01:14;;;;;;;5.55;4.28;;;23.60;56.80;;;19.72;62.11;96041.78;5037336;28;20480;-56
2022/05/17 06:03:45;;;;;;;7.15;4.50;;;23.90;56.20;;;20.03;61.25;96040.94;5071849;28;20024;-59
2022/05/17 06:06:12;;;;;;;7.70;4.55;;;24.10;55.80;;;20.08;60.22;96043.47;5054217;28;20033;-58
2022/05/17 06:08:38;;;;;;;6.55;4.07;;;24.40;55.50;;;20.24;59.92;96039.22;5072050;28;20078;-59
2022/05/17 06:11:04;;;;;;;6.75;4.32;;;24.60;54.80;;;20.50;58.91;96050.09;5053834;28;20024;-59
2022/05/17 06:13:31;;;;;;;7.55;4.25;;;24.80;54.20;;;20.60;58.84;96040.91;5071483;28;20433;-57
2022/05/17 06:16:03;;;;;;;8.40;4.40;;;25.10;53.60;;;20.95;58.14;96049.81;5053891;28;20035;-59
2022/05/17 06:18:47;;;;;;;;;;;25.40;53.00;;;21.11;57.95;96050.13;5072070;28;20364;-57
2022/05/17 06:21:13;;;;;;;9.52;4.43;;;25.60;53.50;;;21.24;57.32;96051.84;5054151;28;19912;-58
2022/05/17 06:23:44;;;;;;;8.00;4.78;;;26.00;52.60;;;21.56;56.66;96046.22;5037072;28;20032;-57
2022/05/17 06:26:10;;;;;;;7.27;4.93;;;26.20;52.00;;;21.60;56.20;96050.69;5071538;28;20390;-55
2022/05/17 06:28:45;;;;;;;9.23;4.45;;;26.40;51.30;;;21.76;55.38;96042.84;5071277;28;20120;-54
2022/05/17 06:31:11;;;;;;;6.40;4.40;;;26.70;50.60;;;22.09;55.42;96055.75;5067042;28;20544;-57
2022/05/17 06:33:39;;;;;;;8.90;4.65;;;26.90;50.00;;;22.30;54.52;96053.91;5071549;28;20021;-58
2022/05/17 06:36:14;;;;;;;7.85;4.82;;;27.20;49.60;;;22.64;53.21;96055.63;5053523;28;20115;-56
2022/05/17 06:38:40;;;;;;;9.57;4.70;;;27.40;48.80;;;22.69;52.46;96061.97;5053512;28;20072;-55
2022/05/17 06:41:06;;;;;;;8.73;4.88;;;27.60;48.50;;;22.60;52.80;96059.34;5053421;28;20440;-58
2022/05/17 06:43:35;;;;;;;12.50;4.95;;;27.80;47.90;;;22.64;53.14;96055.63;5073869;28;20029;-57
2022/05/17 06:46:02;;;;;;;6.25;3.80;;;27.90;47.10;;;22.97;53.48;96057.66;5074829;28;20541;-57
2022/05/17 06:48:31;;;;;;;4.97;4.10;;;28.10;47.00;;;23.20;52.57;96058.06;5057309;28;20056;-59
2022/05/17 06:51:06;;;;;;;5.97;4.40;;;28.30;46.60;;;23.30;51.65;96056.88;5056900;28;20487;-57
2022/05/17 06:53:35;;;;;;;6.80;4.28;;;28.40;45.90;;;23.44;50.76;96051.94;5057257;28;20514;-59
2022/05/17 06:56:05;;;;;;;13.68;7.50;;;28.50;45.50;;;23.55;51.21;96065.88;5074715;28;20038;-57
2022/05/17 06:58:38;;;;;;;5.00;4.25;;;28.70;45.10;;;23.70;52.16;96064.47;5056999;28;20394;-57
2022/05/17 07:01:03;;;;;;;;;;;28.80;45.00;;;23.92;50.85;96071.44;5040825;28;20027;-57
2022/05/17 07:03:29;;;;;;;6.85;4.20;;;28.90;45.50;;;23.92;50.00;96066.00;5056587;28;19995;-57
2022/05/17 07:05:58;;;;;;;7.22;4.13;;;29.10;44.50;;;23.82;49.41;96060.97;5074601;28;20125;-57
2022/05/17 07:08:23;;;;;;;10.50;4.65;;;29.10;43.70;;;23.56;49.89;96065.53;5056773;28;20616;-57
2022/05/17 07:13:48;;;;;;;10.05;4.88;;;29.20;42.70;;;23.50;50.20;96068.81;5059377;28;20032;-57
2022/05/17 07:16:14;;;;;;;7.63;4.60;;;29.20;42.50;;;23.59;50.50;96061.34;5056642;28;20028;-57
2022/05/17 07:18:43;;;;;;;7.47;4.60;;;29.00;42.70;;;23.30;50.97;96071.25;5056509;28;20115;-57
2022/05/17 07:21:14;;;;;;;10.23;4.93;;;29.00;42.50;;;22.87;52.04;96066.16;5074328;28;20074;-56
2022/05/17 07:23:42;;;;;;;7.53;4.13;;;28.80;42.10;;;22.63;52.01;96066.81;5056526;28;20031;-56
2022/05/17 07:26:12;;;;;;;7.38;4.38;;;28.60;42.00;;;22.71;51.49;96073.31;5056517;28;20048;-57
2022/05/17 07:28:42;;;;;;;7.93;4.25;;;28.40;42.00;;;22.50;51.47;96070.56;5049032;28;20040;-56
2022/05/17 07:31:09;;;;;;;4.88;4.35;;;28.40;41.90;;;22.57;51.63;96068.13;5046326;28;20050;-53
2022/05/17 07:33:35;;;;;;;7.15;4.43;;;28.50;41.60;;;22.66;51.51;96068.06;5059973;28;20025;-57
2022/05/17 07:36:02;;;;;;;8.93;4.32;;;28.80;41.20;;;22.90;52.34;96070.13;5055061;28;20029;-57
2022/05/17 07:38:30;;;;;;;7.45;4.38;;;29.00;41.10;;;23.19;50.21;96061.94;5050521;28;20067;-56
2022/05/17 07:40:56;;;;;;;7.10;4.55;;;29.20;40.90;;;23.00;50.87;96065.13;5062183;28;20153;-56
2022/05/17 07:43:22;;;;;;;7.32;4.57;;;29.20;40.50;;;23.11;50.80;96070.94;5050264;28;20514;-56
2022/05/17 07:45:52;;;;;;;7.20;3.95;;;29.10;40.60;;;22.97;50.52;96059.53;5058604;28;20060;-55
2022/05/17 07:48:25;;;;;;;7.07;3.95;;;29.10;40.40;;;22.47;50.82;96063.91;5053850;28;20074;-56
2022/05/17 07:50:52;;;;;;;6.85;4.15;;;29.10;39.90;;;22.93;51.45;96064.81;5026996;28;20037;-57
2022/05/17 07:53:20;;;;;;;9.85;3.90;;;29.30;40.00;;;23.01;50.50;96055.06;5052169;28;20025;-57
2022/05/17 07:55:47;;;;;;;4.75;4.00;;;29.50;39.90;;;23.20;49.17;96063.50;5061625;28;20070;-58
2022/05/17 07:58:14;;;;;;;6.60;4.57;;;29.70;39.20;;;23.47;49.76;96067.56;5042777;28;20407;-58
2022/05/17 08:00:42;;;;;;;10.38;4.10;;;29.90;39.00;;;23.55;49.10;96063.94;5044801;28;20040;-57
2022/05/17 08:03:10;;;;;;;6.28;3.55;;;30.10;39.20;;;23.66;48.15;96055.34;5044403;28;20103;-58
2022/05/17 08:05:36;;;;;;;7.80;4.15;;;30.20;38.30;;;23.88;48.26;96056.91;5046290;28;20082;-58
2022/05/17 08:08:02;;;;;;;6.95;4.10;;;30.30;38.30;;;23.82;49.05;96055.53;5033387;28;20028;-57
2022/05/17 08:10:29;;;;;;;6.68;4.57;;;30.30;38.30;;;23.61;48.36;96042.00;5035341;28;20024;-57
2022/05/17 08:13:15;;;;;;;5.70;3.40;;;30.30;37.90;;;23.95;47.47;96049.78;5057006;28;20029;-58
2022/05/17 08:15:41;;;;;;;6.47;3.78;;;30.40;37.70;;;23.91;47.95;96048.88;5053286;28;20028;-57
2022/05/17 08:18:07;;;;;;;6.68;4.15;;;30.60;37.40;;;23.70;48.31;96042.72;5054311;28;20025;-57
2022/05/17 08:20:33;;;;;;;6.43;3.63;;;30.70;37.20;;;24.02;48.05;96049.22;5052837;28;20029;-57
2022/05/17 08:23:05;;;;;;;9.82;4.65;;;30.80;37.10;;;24.20;47.36;96039.69;5035121;28;20025;-54
2022/05/17 08:28:16;;;;;;;7.60;4.43;;;31.00;36.80;;;24.33;49.09;96045.13;5070459;28;20215;-57
2022/05/17 08:30:43;;;;;;;6.28;4.05;;;31.10;37.00;;;24.33;48.18;96035.03;5062725;28;20501;-58
2022/05/17 08:33:30;;;;;;;8.50;4.13;;;31.20;36.60;;;24.34;46.70;96042.06;5054807;28;20029;-58
2022/05/17 08:36:04;;;;;;;7.13;4.55;;;31.30;36.40;;;24.30;48.32;96032.19;5040887;28;20029;-58
2022/05/17 08:38:52;;;;;;;5.65;4.05;;;31.40;36.20;;;24.55;47.81;96033.00;5055299;28;20031;-58
2022/05/17 08:41:36;;;;;;;10.00;4.32;;;31.50;36.40;;;24.95;47.09;96043.09;5054623;28;20120;-57
2022/05/17 08:44:02;;;;;;;8.82;4.57;;;31.60;36.10;;;25.13;46.38;96041.69;5072754;28;20111;-57
2022/05/17 08:47:16;;;;;;;5.18;4.25;;;31.70;36.00;;;25.30;45.54;96035.94;5072449;28;20492;-58
2022/05/17 08:50:05;;;;;;;6.82;4.10;;;31.90;36.00;;;25.20;46.17;96039.19;5072492;28;20613;-57
2022/05/17 08:52:33;;;;;;;5.95;4.70;;;32.10;35.50;;;25.34;45.95;96038.75;5072487;28;20024;-58
2022/05/17 08:55:31;;;;;;;7.88;4.75;;;32.10;35.50;;;25.53;46.12;96035.34;5038228;28;20119;-58
2022/05/17 08:58:12;;;;;;;8.68;4.90;;;32.20;35.50;;;25.67;45.27;96032.22;5055607;28;20024;-58
2022/05/17 09:01:19;;;;;;;9.43;4.63;;;32.40;35.20;;;26.02;44.90;96032.34;5054922;28;20056;-58
2022/05/17 09:04:27;;;;;;;10.02;5.30;;;32.50;35.30;;;26.29;45.00;96030.63;5072426;28;20459;-58
2022/05/17 09:07:29;;;;;;;9.90;4.97;;;32.70;35.10;;;26.47;44.42;96026.34;5071757;28;20037;-57
2022/05/17 09:10:28;;;;;;;7.75;4.70;;;33.10;35.10;;;26.58;43.82;96023.13;5072703;28;20052;-58
2022/05/17 09:14:07;;;;;;;9.23;4.28;;;33.20;34.20;;;26.26;43.76;96029.41;5072322;28;20112;-58
2022/05/17 09:16:45;;;;;;;9.00;4.70;;;33.40;34.10;;;26.52;43.38;96025.31;5047474;28;20040;-57
2022/05/17 09:19:15;;;;;;;5.75;3.97;;;33.50;33.40;;;25.83;43.47;96019.41;5054980;28;20025;-57
2022/05/17 09:21:48;;;;;;;5.38;3.80;;;33.60;32.50;;;25.94;43.97;96025.91;5054327;28;20025;-57
2022/05/17 09:24:25;;;;;;;4.80;3.75;;;33.60;32.30;;;26.42;42.96;96023.91;5054594;28;20031;-58
2022/05/17 09:27:12;;;;;;;6.65;3.80;;;33.60;32.40;;;26.62;42.04;96024.75;5037855;28;20029;-58
2022/05/17 09:29:46;;;;;;;4.60;3.55;;;33.70;32.10;;;27.03;38.68;96021.69;5037445;28;20047;-58
2022/05/17 09:32:22;;;;;;;4.82;3.50;;;33.80;31.70;;;27.05;40.05;96028.38;5081650;28;20407;-58
2022/05/17 09:35:21;;;;;;;7.50;4.10;;;33.90;31.20;;;27.37;39.54;96028.25;5054395;28;20021;-58
2022/05/17 09:37:56;;;;;;;6.38;3.63;;;34.10;31.00;;;27.49;40.02;96021.81;5051929;28;20777;-58
2022/05/17 09:40:35;;;;;;;4.18;3.35;;;34.20;31.00;;;27.67;39.61;96021.00;5038242;28;20486;-58
2022/05/17 09:43:12;;;;;;;5.45;3.95;;;34.30;30.80;;;27.63;39.51;96019.34;5054632;28;20029;-58
2022/05/17 09:45:58;;;;;;;9.30;4.05;;;34.40;30.80;;;27.65;38.70;96008.81;5054267;28;20033;-58
2022/05/17 09:52:35;;;;;;;7.25;3.20;;;34.60;30.40;;;27.78;38.51;95999.28;4982734;28;20449;-58
2022/05/17 09:55:45;;;;;;;6.43;3.60;;;34.70;29.90;;;28.14;38.06;96011.63;5050886;28;20376;-58
2022/05/17 09:58:44;;;;;;;8.68;3.85;;;34.80;29.90;;;28.56;37.01;96007.94;5050233;28;20041;-56
2022/05/17 10:01:39;;;;;;;4.38;3.20;;;34.90;29.90;;;28.23;37.92;96007.81;5039463;28;20031;-58
2022/05/17 10:04:17;;;;;;;4.88;3.17;;;35.20;29.90;;;27.48;38.28;96012.03;5071898;28;20082;-58
2022/05/17 10:06:55;;;;;;;7.03;3.10;;;35.30;29.20;;;27.71;37.79;95992.91;5053880;28;20031;-60
2022/05/17 10:09:28;;;;;;;6.38;3.53;;;35.30;29.00;;;28.05;37.91;96004.81;5053526;28;20020;-58
2022/05/17 10:12:41;;;;;;;8.50;3.22;;;35.30;29.00;;;28.30;37.17;95996.97;5071722;28;20384;-58
2022/05/17 10:15:10;;;;;;;;;;;35.40;29.00;;;28.32;36.61;95987.22;5059619;28;20094;-58
2022/05/17 10:17:42;;;;;;;4.85;3.35;;;35.40;29.30;;;27.66;37.08;95985.78;5055411;28;20389;-58
2022/05/17 10:20:18;;;;;;;4.90;3.15;;;35.50;28.90;;;27.48;37.90;95985.44;5040550;28;20376;-58
2022/05/17 10:23:23;;;;;;;5.90;2.97;;;35.40;28.20;;;27.77;37.62;95980.50;5040554;28;20085;-58
2022/05/17 10:26:00;;;;;;;7.55;3.10;;;35.40;28.20;;;28.49;36.98;95985.94;5074045;28;20376;-58
2022/05/17 10:28:49;;;;;;;7.38;3.20;;;35.50;28.50;;;28.85;35.51;95983.63;5057017;28;20048;-57
2022/05/17 10:31:40;;;;;;;6.22;3.20;;;35.70;28.30;;;29.11;35.67;95979.25;5072276;28;20041;-57
2022/05/17 10:34:43;;;;;;;5.07;3.05;;;35.90;28.40;;;28.80;35.71;95979.28;5057961;28;20115;-58
2022/05/17 10:37:46;;;;;;;6.35;2.85;;;36.10;28.10;;;28.45;35.42;95981.56;5074257;28;20023;-58
2022/05/17 10:40:43;;;;;;;6.00;3.03;;;36.20;27.60;;;28.05;36.80;95975.50;5028373;28;20037;-58
2022/05/17 10:43:20;;;;;;;5.75;3.22;;;36.10;27.40;;;28.23;35.51;95966.72;5059604;28;20409;-58
2022/05/17 10:45:51;;;;;;;6.22;3.17;;;36.10;27.10;;;28.12;36.41;95977.53;5039602;28;20033;-58
2022/05/17 10:48:32;;;;;;;5.70;3.13;;;36.10;27.10;;;27.40;36.24;95972.81;5056440;28;20082;-58
2022/05/17 10:51:28;;;;;;;7.68;2.97;;;35.90;26.70;;;28.20;35.65;95976.47;5057186;28;20366;-58
2022/05/17 10:54:15;;;;;;;4.95;3.30;;;35.80;26.70;;;28.16;34.65;95961.94;5026798;28;20028;-58
2022/05/17 10:56:59;;;;;;;5.70;2.88;;;35.80;26.90;;;28.26;35.87;95960.53;5073930;28;20103;-58
2022/05/17 10:59:58;;;;;;;7.82;3.08;;;35.80;26.90;;;28.32;35.32;95956.31;5073561;28;20029;-58